Time;durP1;ratioP1;P1;durP2;ratioP2;P2;SDS_P1;SDS_P2;PMS_P1;PMS_P2;Temp;Humidity;BMP_temperature;BMP_pressure;BME280_temperature;BME280_humidity;BME280_pressure;Samples;Min_cycle;Max_cycle;Signal;HPM_P1;HPM_P2
2022/03/20 00:00:17;;;;;;;33.67;25.47;;;;;;;2.36;74.40;101553.56;4895936;29;20240;-75
2022/03/20 00:02:44;;;;;;;31.07;23.93;;;;;;;2.24;75.25;101546.56;4901753;29;20242;-75
2022/03/20 00:05:11;;;;;;;33.37;25.30;;;;;;;2.16;74.44;101551.63;4912553;29;20591;-76
2022/03/20 00:07:38;;;;;;;30.77;23.73;;;;;;;2.07;75.04;101541.75;4914929;29;20722;-76
2022/03/20 00:10:06;;;;;;;31.57;23.83;;;;;;;2.10;73.17;101541.53;4905667;29;20268;-76
2022/03/20 00:12:35;;;;;;;27.80;22.93;;;;;;;2.17;69.79;101538.28;4916861;29;20329;-76
2022/03/20 00:15:03;;;;;;;27.73;22.40;;;;;;;2.18;69.22;101539.13;4908750;29;20735;-76
2022/03/20 00:17:30;;;;;;;31.17;22.67;;;;;;;2.19;67.97;101539.00;4911107;29;20658;-76
2022/03/20 00:19:57;;;;;;;28.43;22.20;;;;;;;2.19;67.37;101535.53;4909967;29;20245;-76
2022/03/20 00:22:24;;;;;;;27.40;22.40;;;;;;;2.21;67.06;101536.25;4903053;29;20671;-75
2022/03/20 00:24:51;;;;;;;27.87;21.80;;;;;;;2.14;66.30;101540.34;4903451;29;20312;-76
2022/03/20 00:27:18;;;;;;;29.07;21.87;;;;;;;2.14;65.82;101538.53;4904211;29;20326;-75
2022/03/20 00:29:45;;;;;;;27.87;22.07;;;;;;;2.17;65.02;101540.09;4899327;29;20265;-76
2022/03/20 00:32:13;;;;;;;29.67;20.97;;;;;;;2.20;64.08;101534.56;4906613;29;20670;-76
2022/03/20 00:34:41;;;;;;;31.20;22.03;;;;;;;2.06;65.14;101535.63;4900591;29;20328;-76
2022/03/20 00:37:09;;;;;;;26.33;20.17;;;;;;;2.08;64.62;101535.53;4896604;29;20235;-75
2022/03/20 00:39:36;;;;;;;29.70;21.10;;;;;;;1.95;64.76;101535.63;4909441;29;20238;-76
2022/03/20 00:42:04;;;;;;;27.83;20.70;;;;;;;1.89;64.49;101533.44;4907753;29;20258;-75
2022/03/20 00:44:31;;;;;;;25.80;20.23;;;;;;;1.82;63.87;101529.59;4905069;29;20759;-76
2022/03/20 00:46:58;;;;;;;29.23;20.63;;;;;;;1.70;64.02;101531.38;4909173;29;20230;-75
2022/03/20 00:49:25;;;;;;;24.53;19.80;;;;;;;1.66;63.83;101529.09;4915804;29;20237;-76
2022/03/20 00:51:51;;;;;;;27.47;19.57;;;;;;;1.69;63.10;101532.31;4915519;29;20321;-76
2022/03/20 00:54:18;;;;;;;24.07;18.80;;;;;;;1.68;62.36;101535.91;4903911;29;20231;-76
2022/03/20 00:56:46;;;;;;;22.30;17.73;;;;;;;1.72;61.69;101528.63;4914433;29;20727;-76
2022/03/20 00:59:13;;;;;;;24.73;18.80;;;;;;;1.70;61.20;101533.16;4902966;29;20638;-76
2022/03/20 01:01:41;;;;;;;24.87;18.67;;;;;;;1.66;60.50;101529.09;4909045;29;20229;-76
2022/03/20 01:04:08;;;;;;;22.80;16.70;;;;;;;1.60;60.98;101525.09;4915454;29;20245;-75
2022/03/20 01:06:35;;;;;;;22.37;18.27;;;;;;;1.63;60.30;101530.13;4901282;29;20267;-76
2022/03/20 01:09:02;;;;;;;21.70;17.80;;;;;;;1.68;60.23;101528.00;4899370;29;20244;-76
2022/03/20 01:11:29;;;;;;;25.33;18.43;;;;;;;1.70;59.43;101534.00;4913066;29;20691;-76
2022/03/20 01:13:56;;;;;;;24.50;18.17;;;;;;;1.73;59.17;101535.56;4895967;29;20662;-76
2022/03/20 01:16:23;;;;;;;23.63;17.80;;;;;;;1.78;58.79;101536.91;4913699;29;20320;-76
2022/03/20 01:18:50;;;;;;;22.13;17.73;;;;;;;1.78;58.88;101536.91;4915402;29;20702;-76
2022/03/20 01:21:18;;;;;;;23.60;16.77;;;;;;;1.72;58.12;101533.91;4915765;29;20225;-75
2022/03/20 01:23:45;;;;;;;23.77;16.77;;;;;;;1.73;58.10;101532.94;4902244;29;20273;-76
2022/03/20 01:26:12;;;;;;;24.87;16.67;;;;;;;1.64;58.80;101530.97;4905322;29;20227;-76
2022/03/20 01:28:39;;;;;;;22.00;16.47;;;;;;;1.65;58.44;101525.59;4911790;29;20238;-76
2022/03/20 01:31:08;;;;;;;21.13;16.33;;;;;;;1.77;57.11;101527.28;4903410;29;20245;-76
2022/03/20 01:33:36;;;;;;;21.63;17.13;;;;;;;1.69;57.31;101526.19;4914261;29;20274;-76
2022/03/20 01:36:03;;;;;;;21.30;16.57;;;;;;;1.76;56.25;101517.69;4914881;29;20246;-76
2022/03/20 01:38:30;;;;;;;21.43;16.57;;;;;;;1.59;57.22;101514.63;4913641;29;20230;-76
2022/03/20 01:40:57;;;;;;;20.77;15.83;;;;;;;1.68;56.19;101517.41;4908523;29;20262;-76
2022/03/20 01:43:24;;;;;;;25.33;16.03;;;;;;;1.59;56.21;101520.75;4890532;29;20612;-76
2022/03/20 01:45:50;;;;;;;22.00;15.60;;;;;;;1.71;55.46;101519.00;4912263;29;20234;-76
2022/03/20 01:48:18;;;;;;;20.00;15.67;;;;;;;1.69;55.06;101516.47;4904624;29;20321;-76
2022/03/20 01:50:44;;;;;;;19.00;15.50;;;;;;;1.65;54.65;101520.31;4904650;29;20766;-75
2022/03/20 01:53:11;;;;;;;18.83;14.80;;;;;;;1.71;53.97;101521.66;4919207;29;20249;-76
2022/03/20 01:55:38;;;;;;;19.67;15.13;;;;;;;1.63;54.33;101510.84;4918208;29;20265;-76
2022/03/20 01:58:05;;;;;;;18.77;14.33;;;;;;;1.59;53.64;101506.72;4919123;29;20312;-76
2022/03/20 02:00:32;;;;;;;18.57;14.67;;;;;;;1.51;53.72;101504.66;4918867;29;20226;-75
2022/03/20 02:03:00;;;;;;;20.33;14.57;;;;;;;1.53;53.39;101500.13;4900475;29;20321;-76
2022/03/20 02:05:27;;;;;;;19.67;13.80;;;;;;;1.54;53.23;101509.69;4912079;29;20291;-76
2022/03/20 02:07:54;;;;;;;18.83;12.73;;;;;;;1.55;52.82;101503.47;4903610;29;20317;-76
2022/03/20 02:10:21;;;;;;;18.93;14.50;;;;;;;1.44;52.12;101503.44;4900157;29;20291;-77
2022/03/20 02:12:47;;;;;;;17.63;12.97;;;;;;;1.44;52.90;101499.97;4918070;29;20285;-76
2022/03/20 02:15:15;;;;;;;16.73;13.30;;;;;;;1.23;52.77;101492.69;4918533;29;20241;-76
2022/03/20 02:17:43;;;;;;;16.37;12.80;;;;;;;1.20;53.11;101503.50;4927918;29;20673;-76
2022/03/20 02:20:11;;;;;;;16.43;12.70;;;;;;;1.02;53.38;101499.56;4927010;29;20263;-75
2022/03/20 02:22:44;;;;;;;17.73;13.10;;;;;;;0.88;53.77;101503.22;4926540;29;20230;-76
2022/03/20 02:25:14;;;;;;;15.33;11.87;;;;;;;0.83;53.57;101505.34;4921555;29;20237;-77
2022/03/20 02:27:44;;;;;;;15.43;12.10;;;;;;;0.94;53.80;101501.91;4926899;29;20234;-76
2022/03/20 02:30:15;;;;;;;15.47;12.70;;;;;;;0.88;53.80;101505.88;4924814;29;20238;-76
2022/03/20 02:32:48;;;;;;;16.57;12.83;;;;;;;0.79;53.22;101510.97;4911625;29;20269;-77
2022/03/20 02:35:17;;;;;;;15.97;12.37;;;;;;;0.92;52.70;101517.03;4911644;29;20939;-76
2022/03/20 02:37:46;;;;;;;16.37;12.07;;;;;;;0.93;52.05;101512.59;4892515;29;20711;-76
2022/03/20 02:40:14;;;;;;;16.10;12.50;;;;;;;0.86;52.05;101515.69;4911103;29;20321;-75
2022/03/20 02:42:45;;;;;;;16.53;11.70;;;;;;;0.79;51.33;101514.41;4917850;29;20260;-76
2022/03/20 02:45:13;;;;;;;15.07;11.40;;;;;;;0.78;51.50;101517.19;4906331;29;20336;-76
2022/03/20 02:47:42;;;;;;;15.80;12.23;;;;;;;0.70;51.27;101507.19;4917976;29;20238;-76
2022/03/20 02:50:17;;;;;;;17.00;11.53;;;;;;;0.65;51.17;101506.69;4896642;29;20242;-76
2022/03/20 02:52:52;;;;;;;13.80;11.33;;;;;;;0.67;50.70;101510.03;4914351;29;20697;-76
2022/03/20 02:55:35;;;;;;;15.13;11.10;;;;;;;0.73;50.50;101506.97;4887983;29;20648;-76
2022/03/20 02:58:10;;;;;;;15.77;10.80;;;;;;;0.77;50.37;101508.44;4915532;29;20230;-75
2022/03/20 03:00:38;;;;;;;15.47;11.33;;;;;;;0.77;50.28;101515.50;4917381;29;20333;-76
2022/03/20 03:03:08;;;;;;;15.03;10.97;;;;;;;0.66;50.45;101510.16;4904423;29;20239;-76
2022/03/20 03:05:35;;;;;;;13.57;10.77;;;;;;;0.81;50.19;101507.25;4904377;29;20234;-75
2022/03/20 03:10:55;;;;;;;15.97;11.07;;;;;;;0.85;49.72;101518.41;4915888;29;20238;-76
2022/03/20 03:13:31;;;;;;;14.67;11.00;;;;;;;0.87;49.81;101525.28;4911375;29;20249;-76
2022/03/20 03:16:00;;;;;;;14.20;11.30;;;;;;;0.86;49.76;101528.03;4916011;29;20238;-76
2022/03/20 03:18:27;;;;;;;14.73;10.73;;;;;;;0.90;49.65;101516.28;4917271;29;20660;-76
2022/03/20 03:20:54;;;;;;;15.23;11.20;;;;;;;0.89;50.00;101525.16;4915796;29;20246;-76
2022/03/20 03:23:21;;;;;;;14.97;11.27;;;;;;;0.70;49.90;101530.91;4905668;29;20765;-76
2022/03/20 03:25:48;;;;;;;13.47;11.00;;;;;;;0.62;50.91;101522.72;4910516;29;20253;-75
2022/03/20 03:28:15;;;;;;;14.40;10.73;;;;;;;0.56;50.95;101525.78;4915517;29;20234;-76
2022/03/20 03:30:44;;;;;;;15.13;11.40;;;;;;;0.53;50.80;101528.66;4903845;29;20230;-75
2022/03/20 03:33:16;;;;;;;14.73;10.67;;;;;;;0.54;50.51;101524.22;4904661;29;20260;-76
2022/03/20 03:35:46;;;;;;;13.73;10.80;;;;;;;0.46;50.58;101524.78;4909162;29;20238;-76
2022/03/20 03:38:16;;;;;;;12.80;10.53;;;;;;;0.51;49.97;101529.72;4901808;29;20241;-76
2022/03/20 03:40:45;;;;;;;14.33;10.53;;;;;;;0.50;49.70;101531.53;4890843;29;20247;-75
2022/03/20 03:43:14;;;;;;;12.87;10.37;;;;;;;0.45;49.27;101525.72;4904575;29;20706;-76
2022/03/20 03:45:41;;;;;;;15.77;9.80;;;;;;;0.49;49.38;101521.91;4903530;29;20325;-75
2022/03/20 03:48:09;;;;;;;11.87;9.73;;;;;;;0.43;49.94;101528.47;4908528;29;20240;-76
2022/03/20 03:50:37;;;;;;;11.97;10.13;;;;;;;0.35;50.05;101524.69;4903695;29;20294;-75
2022/03/20 03:53:04;;;;;;;13.10;9.77;;;;;;;0.29;50.42;101517.19;4914944;29;20248;-76
2022/03/20 03:55:32;;;;;;;13.87;10.03;;;;;;;0.28;50.08;101516.34;4904496;29;20243;-76
2022/03/20 03:57:59;;;;;;;13.13;10.20;;;;;;;0.36;49.35;101518.47;4903249;29;20256;-76
2022/03/20 04:00:27;;;;;;;13.47;10.00;;;;;;;0.34;49.81;101523.00;4916081;29;20245;-75
2022/03/20 04:02:54;;;;;;;14.53;10.00;;;;;;;0.22;49.60;101518.59;4916287;29;20230;-75
2022/03/20 04:05:21;;;;;;;13.20;10.13;;;;;;;0.16;49.48;101519.88;4916566;29;20234;-76
2022/03/20 04:07:48;;;;;;;11.50;9.13;;;;;;;0.18;49.38;101514.50;4902771;29;20421;-76
2022/03/20 04:10:16;;;;;;;12.73;10.20;;;;;;;0.09;49.23;101510.72;4909813;29;20272;-75
2022/03/20 04:12:43;;;;;;;13.43;9.47;;;;;;;0.02;49.61;101511.22;4890151;29;20239;-76
2022/03/20 04:15:11;;;;;;;12.60;9.20;;;;;;;0.03;49.48;101516.41;4916366;29;20249;-76
2022/03/20 04:17:38;;;;;;;11.97;9.47;;;;;;;0.01;49.83;101518.28;4914863;29;20234;-76
2022/03/20 04:20:07;;;;;;;11.03;9.13;;;;;;;-0.09;50.09;101514.59;4902655;29;20234;-76
2022/03/20 04:22:36;;;;;;;13.53;9.57;;;;;;;-0.02;49.38;101515.88;4915136;29;20238;-76
2022/03/20 04:25:04;;;;;;;11.73;9.03;;;;;;;-0.07;49.98;101521.47;4915991;29;20301;-76
2022/03/20 04:27:31;;;;;;;12.37;8.80;;;;;;;-0.20;50.09;101503.97;4916079;29;20230;-75
2022/03/20 04:29:58;;;;;;;14.07;9.07;;;;;;;-0.26;50.09;101515.75;4902754;29;20242;-76
2022/03/20 04:32:25;;;;;;;14.03;9.17;;;;;;;-0.25;50.11;101517.44;4915384;29;20277;-76
2022/03/20 04:34:55;;;;;;;10.97;8.67;;;;;;;-0.32;50.19;101518.81;4915714;29;20773;-75
2022/03/20 04:37:21;;;;;;;12.90;8.90;;;;;;;-0.48;50.66;101518.16;4907215;29;20292;-75
2022/03/20 04:39:49;;;;;;;11.33;8.80;;;;;;;-0.40;50.52;101521.13;4906771;29;20317;-75
2022/03/20 04:42:16;;;;;;;11.67;8.93;;;;;;;-0.46;50.09;101519.75;4896561;29;20242;-76
2022/03/20 04:44:43;;;;;;;11.53;8.70;;;;;;;-0.55;50.57;101519.50;4915641;29;20236;-76
2022/03/20 04:58:29;;;;;;;12.00;8.67;;;;;;;-0.47;49.80;101520.69;4907737;29;20656;-76
2022/03/20 04:58:31;;;;;;;30.97;19.87;;;;;;;-0.53;49.56;101530.78;4914816;29;20229;-76
2022/03/20 05:00:58;;;;;;;76.33;35.33;;;;;;;-0.49;49.33;101530.50;4915434;29;20233;-74
2022/03/20 05:03:25;;;;;;;56.63;29.03;;;;;;;-0.42;48.97;101532.72;4902668;29;20694;-76
2022/03/20 05:05:52;;;;;;;35.37;21.43;;;;;;;-0.43;49.46;101529.25;4902056;29;20238;-75
2022/03/20 05:08:19;;;;;;;24.33;16.17;;;;;;;-0.52;50.16;101529.84;4915314;29;20229;-75
2022/03/20 05:13:49;;;;;;;12.60;9.30;;;;;;;-0.52;50.45;101540.38;4879253;29;20254;-76
2022/03/20 05:16:17;;;;;;;13.63;10.07;;;;;;;-0.46;49.86;101550.50;4901290;29;20238;-76
2022/03/20 05:18:44;;;;;;;15.27;10.73;;;;;;;-0.46;50.54;101553.13;4902306;29;20322;-75
2022/03/20 05:21:11;;;;;;;13.30;10.03;;;;;;;-0.31;50.21;101553.88;4914839;29;20670;-76
2022/03/20 05:23:39;;;;;;;14.67;11.57;;;;;;;-0.29;49.99;101552.00;4915183;29;20254;-75
2022/03/20 05:26:06;;;;;;;15.27;9.67;;;;;;;-0.33;50.50;101564.56;4914515;29;20230;-76
2022/03/20 05:28:33;;;;;;;12.53;8.87;;;;;;;-0.24;50.62;101563.09;4902424;29;20756;-75
2022/03/20 05:30:59;;;;;;;12.73;9.50;;;;;;;-0.17;50.28;101559.91;4901837;29;20319;-76
2022/03/20 05:33:29;;;;;;;13.83;9.60;;;;;;;-0.25;50.85;101562.25;4901169;29;20721;-75
2022/03/20 05:35:56;;;;;;;11.83;9.30;;;;;;;-0.11;50.64;101563.94;4914775;29;20336;-76
2022/03/20 05:38:23;;;;;;;11.97;9.43;;;;;;;-0.13;51.27;101564.03;4907113;29;20234;-76
2022/03/20 05:41:43;;;;;;;12.20;9.50;;;;;;;0.03;50.95;101563.84;4914364;29;20241;-75
2022/03/20 05:43:37;;;;;;;13.87;9.80;;;;;;;0.07;50.67;101562.66;4895466;29;20243;-76
2022/03/20 05:46:04;;;;;;;12.33;9.90;;;;;;;0.34;50.49;101575.72;4913004;29;20649;-76
2022/03/20 05:48:31;;;;;;;13.57;9.27;;;;;;;0.56;49.92;101573.25;4915392;29;20702;-75
2022/03/20 05:50:58;;;;;;;14.00;9.80;;;;;;;0.63;49.60;101581.59;4901744;29;20576;-75
2022/03/20 05:53:24;;;;;;;13.87;10.20;;;;;;;0.60;49.35;101576.56;4914962;29;20582;-75
2022/03/20 05:58:38;;;;;;;12.73;9.63;;;;;;;1.04;47.55;101587.41;4906784;29;20237;-76
2022/03/20 06:01:04;;;;;;;13.53;9.60;;;;;;;1.18;47.33;101583.75;4913217;29;20288;-76
2022/03/20 06:03:31;;;;;;;13.67;9.10;;;;;;;1.18;46.87;101594.31;4910001;29;20308;-75
2022/03/20 06:05:58;;;;;;;11.77;9.70;;;;;;;1.32;47.39;101588.88;4914578;29;20705;-76
2022/03/20 06:08:25;;;;;;;14.90;9.17;;;;;;;1.46;47.74;101593.97;4893905;29;20239;-76
2022/03/20 06:10:54;;;;;;;12.83;9.53;;;;;;;1.49;47.68;101603.50;4909988;29;20594;-75
2022/03/20 06:13:21;;;;;;;10.43;8.93;;;;;;;1.59;48.49;101613.22;4895637;29;20231;-75
2022/03/20 06:15:48;;;;;;;14.73;8.73;;;;;;;1.69;47.64;101608.97;4883216;29;20247;-75
2022/03/20 06:18:15;;;;;;;11.17;8.97;;;;;;;1.90;47.21;101621.53;4907961;29;20333;-76
2022/03/20 06:20:42;;;;;;;12.70;9.07;;;;;;;2.10;46.02;101618.22;4908191;29;20317;-76
2022/03/20 06:23:09;;;;;;;11.37;9.03;;;;;;;2.26;45.98;101620.53;4908326;29;20242;-75
2022/03/20 06:25:37;;;;;;;12.63;8.47;;;;;;;2.36;45.34;101614.41;4914607;29;20241;-76
2022/03/20 06:28:04;;;;;;;10.97;8.37;;;;;;;2.40;45.16;101610.56;4901050;29;20234;-75
2022/03/20 06:30:34;;;;;;;12.53;8.87;;;;;;;2.48;44.57;101618.75;4908178;29;20317;-76
2022/03/20 06:33:02;;;;;;;11.03;8.93;;;;;;;2.60;44.55;101623.09;4910858;29;20229;-76
2022/03/20 06:35:29;;;;;;;11.97;9.30;;;;;;;2.83;42.87;101623.09;4918119;29;20242;-76
2022/03/20 06:37:56;;;;;;;14.53;11.70;;;;;;;2.91;42.14;101621.50;4912269;29;20263;-76
2022/03/20 06:40:23;;;;;;;13.30;10.30;;;;;;;3.00;41.47;101639.31;4892006;29;20233;-76
2022/03/20 06:42:50;;;;;;;13.43;10.47;;;;;;;3.13;40.80;101649.75;4904651;29;20255;-75
2022/03/20 06:45:19;;;;;;;12.60;10.53;;;;;;;3.26;41.44;101655.78;4915061;29;21579;-76
2022/03/20 06:47:46;;;;;;;11.13;9.03;;;;;;;3.49;40.54;101651.25;4893434;29;20309;-76
2022/03/20 06:50:14;;;;;;;10.13;8.57;;;;;;;3.48;40.71;101658.38;4892196;29;20230;-76
2022/03/20 06:52:40;;;;;;;10.93;8.40;;;;;;;3.44;40.13;101656.09;4892175;29;20329;-76
2022/03/20 06:55:13;;;;;;;11.07;8.97;;;;;;;3.47;39.64;101650.53;4899232;29;20239;-75
2022/03/20 06:57:45;;;;;;;11.87;9.10;;;;;;;3.70;39.25;101646.00;4894366;29;20230;-76
2022/03/20 07:00:13;;;;;;;11.33;8.63;;;;;;;3.90;38.76;101659.28;4896654;29;20312;-76
2022/03/20 07:03:00;;;;;;;11.57;8.27;;;;;;;3.99;38.71;101661.19;4915790;29;20248;-75
2022/03/20 07:05:32;;;;;;;11.80;9.03;;;;;;;3.89;38.43;101657.59;4906446;29;20234;-76
2022/03/20 07:07:59;;;;;;;11.33;8.60;;;;;;;4.07;38.65;101667.63;4903545;29;20679;-76
2022/03/20 07:10:27;;;;;;;11.87;8.90;;;;;;;4.05;38.54;101666.94;4901172;29;20778;-76
2022/03/20 07:15:41;;;;;;;11.23;9.07;;;;;;;4.21;38.79;101669.97;4898325;29;20994;-76
2022/03/20 07:18:09;;;;;;;11.77;8.40;;;;;;;4.30;37.95;101664.75;4915247;29;20325;-76
2022/03/20 07:20:39;;;;;;;10.87;8.10;;;;;;;4.38;36.86;101658.81;4899699;29;20231;-76
2022/03/20 07:23:09;;;;;;;10.23;8.53;;;;;;;4.54;36.90;101661.81;4901971;29;20649;-76
2022/03/20 07:31:09;;;;;;;14.33;8.37;;;;;;;4.74;36.43;101658.28;4917190;29;20264;-77
2022/03/20 07:33:36;;;;;;;12.73;9.00;;;;;;;4.89;36.58;101656.13;4916729;29;20333;-76
2022/03/20 07:36:04;;;;;;;10.30;8.17;;;;;;;4.97;35.60;101645.66;4910257;29;20242;-76
2022/03/20 07:38:30;;;;;;;11.50;8.67;;;;;;;5.10;36.01;101648.91;4911081;29;20238;-76
2022/03/20 07:40:57;;;;;;;12.53;9.17;;;;;;;5.17;36.82;101636.78;4897336;29;20230;-77
2022/03/20 07:43:26;;;;;;;9.90;8.90;;;;;;;5.25;35.44;101638.75;4910344;29;20246;-76
2022/03/20 07:45:53;;;;;;;9.63;8.57;;;;;;;5.25;35.59;101638.75;4911190;29;20324;-77
2022/03/20 07:48:21;;;;;;;11.00;9.33;;;;;;;5.42;35.19;101637.22;4911845;29;20332;-76
2022/03/20 07:50:50;;;;;;;11.30;8.93;;;;;;;5.57;35.24;101647.31;4897975;29;20686;-75
2022/03/20 07:53:17;;;;;;;11.07;8.30;;;;;;;5.59;35.14;101639.22;4891106;29;20237;-76
2022/03/20 07:55:45;;;;;;;13.03;8.57;;;;;;;5.82;35.20;101647.78;4897376;29;20253;-79
2022/03/20 07:58:16;;;;;;;12.97;9.20;;;;;;;5.91;34.34;101642.47;4911383;29;20237;-77
2022/03/20 08:00:43;;;;;;;10.50;8.93;;;;;;;6.06;34.20;101645.56;4893623;29;20246;-76
2022/03/20 08:03:10;;;;;;;13.40;9.00;;;;;;;6.11;34.80;101643.31;4895044;29;20279;-77
2022/03/20 08:05:37;;;;;;;13.30;9.30;;;;;;;6.23;34.38;101636.84;4893410;29;20242;-75
2022/03/20 08:08:05;;;;;;;13.63;9.33;;;;;;;6.32;34.09;101641.31;4902966;29;20238;-77
2022/03/20 08:10:32;;;;;;;12.67;9.67;;;;;;;6.48;34.33;101641.56;4916861;29;20236;-76
2022/03/20 08:12:59;;;;;;;12.10;9.70;;;;;;;6.66;33.92;101646.13;4904026;29;20253;-79
2022/03/20 08:15:25;;;;;;;11.40;9.50;;;;;;;6.75;34.34;101648.75;4916658;29;20321;-79
2022/03/20 08:17:53;;;;;;;11.70;8.93;;;;;;;6.87;33.24;101639.56;4917028;29;20233;-78
2022/03/20 08:20:20;;;;;;;10.47;9.30;;;;;;;6.99;33.34;101648.25;4901878;29;20246;-79
2022/03/20 08:22:48;;;;;;;12.70;9.40;;;;;;;7.00;33.58;101649.88;4917154;29;20273;-79
2022/03/20 08:25:14;;;;;;;14.17;9.63;;;;;;;7.10;33.22;101642.69;4902339;29;20237;-79
2022/03/20 08:27:42;;;;;;;12.00;9.67;;;;;;;7.17;33.70;101648.28;4906978;29;20695;-79
2022/03/20 08:30:12;;;;;;;11.40;9.23;;;;;;;7.18;33.86;101650.81;4905847;29;20321;-79
2022/03/20 08:32:39;;;;;;;13.13;9.57;;;;;;;7.24;33.60;101644.84;4897199;29;20298;-79
2022/03/20 08:35:06;;;;;;;12.10;9.60;;;;;;;7.26;33.43;101653.56;4913477;29;20337;-80
2022/03/20 08:37:35;;;;;;;11.50;9.77;;;;;;;7.20;33.35;101642.63;4916177;29;20294;-79
2022/03/20 08:40:03;;;;;;;10.93;9.60;;;;;;;7.36;33.06;101646.34;4916497;29;20234;-78
2022/03/20 08:42:30;;;;;;;12.70;10.17;;;;;;;7.43;33.48;101639.41;4916386;29;20666;-79
2022/03/20 08:44:56;;;;;;;14.97;10.13;;;;;;;7.50;34.09;101645.84;4916468;29;20693;-78
2022/03/20 08:47:25;;;;;;;14.40;10.10;;;;;;;7.53;32.88;101650.00;4903256;29;20796;-79
2022/03/20 08:49:52;;;;;;;15.67;10.17;;;;;;;7.49;33.08;101648.63;4916518;29;20325;-79
2022/03/20 08:52:19;;;;;;;14.97;9.83;;;;;;;7.43;32.79;101647.41;4915444;29;20234;-79
2022/03/20 08:54:46;;;;;;;11.10;9.93;;;;;;;7.49;33.22;101651.31;4916036;29;20238;-79
2022/03/20 08:57:15;;;;;;;12.83;9.37;;;;;;;7.46;33.58;101644.47;4914666;29;20234;-78
2022/03/20 08:59:42;;;;;;;12.97;9.53;;;;;;;7.65;33.29;101631.97;4911167;29;20262;-79
2022/03/20 09:02:09;;;;;;;15.20;10.00;;;;;;;7.81;32.47;101635.63;4914760;29;20777;-78
2022/03/20 09:04:35;;;;;;;14.20;9.87;;;;;;;7.82;33.24;101639.13;4915748;29;20238;-79
2022/03/20 09:07:02;;;;;;;14.10;10.27;;;;;;;7.84;33.24;101635.31;4902832;29;20230;-79
2022/03/20 09:09:29;;;;;;;14.07;10.63;;;;;;;7.84;33.20;101635.31;4914592;29;20236;-78
2022/03/20 09:11:56;;;;;;;15.37;10.00;;;;;;;7.83;33.23;101644.31;4909469;29;20408;-78
2022/03/20 09:14:23;;;;;;;12.03;10.03;;;;;;;7.76;32.83;101648.56;4907960;29;20230;-78
2022/03/20 09:19:36;;;;;;;23.20;11.47;;;;;;;7.61;32.57;101654.59;4904170;29;20362;-79
2022/03/20 09:22:06;;;;;;;17.67;10.13;;;;;;;7.54;32.36;101654.38;4901247;29;20303;-79
2022/03/20 09:24:33;;;;;;;26.43;11.63;;;;;;;7.70;32.93;101662.50;4916091;29;20654;-79
2022/03/20 09:27:01;;;;;;;13.43;10.83;;;;;;;7.99;32.46;101659.63;4915865;29;20240;-79
2022/03/20 09:29:28;;;;;;;11.57;9.93;;;;;;;8.23;32.67;101667.00;4909537;29;20246;-78
2022/03/20 09:31:55;;;;;;;13.03;10.23;;;;;;;8.54;31.71;101670.13;4916172;29;20238;-79
2022/03/20 09:34:21;;;;;;;12.97;10.33;;;;;;;8.58;31.59;101666.13;4902045;29;20324;-78
2022/03/20 09:36:48;;;;;;;15.40;9.83;;;;;;;8.85;31.02;101665.94;4916179;29;20222;-78
2022/03/20 09:39:15;;;;;;;20.17;11.20;;;;;;;9.08;31.52;101660.88;4895143;29;20740;-79
2022/03/20 09:41:46;;;;;;;13.23;9.70;;;;;;;9.18;30.47;101659.75;4910443;29;20246;-78
2022/03/20 09:44:15;;;;;;;12.47;10.10;;;;;;;9.07;30.74;101669.88;4915224;29;20260;-78
2022/03/20 09:46:41;;;;;;;11.47;10.20;;;;;;;9.21;30.98;101661.25;4915726;29;20661;-79
2022/03/20 09:49:08;;;;;;;12.33;9.93;;;;;;;9.38;30.89;101662.97;4915613;29;20250;-78
2022/03/20 09:51:35;;;;;;;13.20;10.17;;;;;;;9.40;30.17;101670.84;4901919;29;20270;-76
2022/03/20 09:54:02;;;;;;;14.30;10.60;;;;;;;9.64;30.16;101660.22;4914656;29;20301;-75
2022/03/20 09:56:29;;;;;;;13.93;10.20;;;;;;;9.75;29.82;101664.41;4912341;29;20738;-77
2022/03/20 09:58:56;;;;;;;13.97;10.23;;;;;;;10.05;29.52;101661.09;4899572;29;20291;-76
2022/03/20 10:01:23;;;;;;;14.23;10.40;;;;;;;10.11;29.44;101663.09;4914247;29;20283;-75
2022/03/20 10:04:11;;;;;;;18.10;10.87;;;;;;;10.22;29.25;101656.63;4902507;29;20272;-78
2022/03/20 10:06:38;;;;;;;13.10;10.60;;;;;;;10.03;29.25;101668.47;4896308;29;20259;-76
2022/03/20 10:09:13;;;;;;;14.37;10.70;;;;;;;10.39;29.10;101669.81;4913790;29;20235;-75
2022/03/20 10:11:51;;;;;;;13.97;10.70;;;;;;;10.57;29.15;101659.75;4893620;29;20237;-76
2022/03/20 10:14:23;;;;;;;16.23;10.27;;;;;;;10.55;28.58;101661.75;4918144;29;20238;-75
2022/03/20 10:17:09;;;;;;;15.10;10.87;;;;;;;10.63;29.11;101665.44;4917444;29;20246;-75
2022/03/20 10:19:36;;;;;;;12.93;10.90;;;;;;;10.80;28.82;101667.06;4911122;29;20238;-75
2022/03/20 10:22:05;;;;;;;19.90;11.37;;;;;;;11.18;28.51;101668.09;4912664;29;20276;-75
2022/03/20 10:24:40;;;;;;;12.50;10.60;;;;;;;11.25;28.23;101666.38;4922947;29;20286;-76
2022/03/20 10:27:15;;;;;;;12.80;10.70;;;;;;;11.28;28.29;101666.91;4915076;29;20243;-76
2022/03/20 10:29:52;;;;;;;12.70;10.57;;;;;;;11.50;27.72;101662.59;4907238;29;20234;-76
2022/03/20 10:32:20;;;;;;;14.23;11.50;;;;;;;11.51;27.93;101661.56;4913024;29;20234;-76
2022/03/20 10:34:54;;;;;;;14.60;10.70;;;;;;;11.58;27.58;101662.53;4922297;29;20324;-77
2022/03/20 10:37:46;;;;;;;12.37;10.40;;;;;;;11.58;27.38;101656.31;4921668;29;20261;-75
2022/03/20 10:40:16;;;;;;;12.70;10.97;;;;;;;11.30;27.34;101662.16;4910731;29;20225;-76
2022/03/20 10:42:45;;;;;;;15.10;10.67;;;;;;;11.23;28.04;101668.44;4906200;29;20238;-75
2022/03/20 10:45:11;;;;;;;12.17;10.37;;;;;;;11.42;27.83;101665.31;4903657;29;20614;-78
2022/03/20 10:47:38;;;;;;;15.20;10.87;;;;;;;11.51;27.88;101658.88;4905115;29;20332;-78
2022/03/20 10:50:09;;;;;;;11.87;10.50;;;;;;;11.67;27.60;101657.94;4912486;29;20234;-76
2022/03/20 10:52:36;;;;;;;12.67;10.67;;;;;;;11.63;27.76;101657.47;4911350;29;20815;-79
2022/03/20 10:55:09;;;;;;;12.73;10.70;;;;;;;11.74;27.71;101649.03;4917587;29;20623;-79
2022/03/20 10:57:36;;;;;;;13.90;10.93;;;;;;;11.57;27.97;101651.97;4911184;29;20634;-79
2022/03/20 11:00:14;;;;;;;12.10;10.90;;;;;;;11.48;27.59;101643.97;4917654;29;20230;-79
2022/03/20 11:02:41;;;;;;;13.43;10.23;;;;;;;11.29;27.65;101643.59;4891973;29;20249;-76
2022/03/20 11:05:09;;;;;;;12.73;10.40;;;;;;;11.59;28.32;101645.41;4904526;29;20717;-78
2022/03/20 11:07:36;;;;;;;11.97;10.50;;;;;;;11.57;27.67;101643.94;4904153;29;20326;-76
2022/03/20 11:10:11;;;;;;;11.80;10.07;;;;;;;11.64;26.92;101631.44;4917253;29;20625;-76
2022/03/20 11:12:39;;;;;;;11.47;10.03;;;;;;;11.81;26.85;101631.19;4915717;29;20288;-78
2022/03/20 11:15:07;;;;;;;11.57;10.37;;;;;;;12.06;26.60;101636.38;4916231;29;20677;-78
2022/03/20 11:17:44;;;;;;;11.67;9.97;;;;;;;12.11;26.15;101626.75;4897372;29;20262;-78
2022/03/20 11:20:12;;;;;;;26.23;11.60;;;;;;;12.43;26.31;101622.94;4917480;29;20768;-78
2022/03/20 11:22:48;;;;;;;15.90;9.73;;;;;;;12.54;26.01;101625.19;4905867;29;20234;-79
2022/03/20 11:25:20;;;;;;;30.37;11.77;;;;;;;12.54;25.83;101618.97;4918397;29;20242;-78
2022/03/20 11:27:53;;;;;;;10.90;9.70;;;;;;;12.16;25.76;101621.69;4903473;29;20231;-79
2022/03/20 11:30:22;;;;;;;34.10;11.77;;;;;;;12.24;26.82;101613.53;4912694;29;20607;-79
2022/03/20 11:32:50;;;;;;;18.97;10.03;;;;;;;12.06;26.12;101612.19;4917343;29;20320;-78
2022/03/20 11:35:22;;;;;;;10.80;9.50;;;;;;;12.07;26.56;101612.03;4904097;29;20231;-78
2022/03/20 11:37:50;;;;;;;10.87;9.67;;;;;;;12.47;26.25;101605.41;4910445;29;20263;-79
2022/03/20 11:40:20;;;;;;;56.77;13.13;;;;;;;12.48;26.17;101599.00;4913116;29;20705;-79
2022/03/20 11:42:49;;;;;;;12.40;9.67;;;;;;;12.73;25.71;101592.34;4917811;29;20302;-78
2022/03/20 11:45:17;;;;;;;12.50;9.90;;;;;;;12.79;25.46;101596.97;4917738;29;20265;-78
2022/03/20 11:47:49;;;;;;;12.57;9.93;;;;;;;12.86;25.05;101589.00;4905245;29;20234;-78
2022/03/20 11:50:23;;;;;;;32.10;12.17;;;;;;;12.76;25.60;101581.22;4903636;29;20712;-79
2022/03/20 11:52:58;;;;;;;25.70;11.07;;;;;;;12.73;25.70;101567.31;4910892;29;20334;-78